sensor_id;sensor_type;location;lat;lon;timestamp;temperature;humidity
66053;HTU21D;52833;45.112;39.556;2022-07-23T00:00:19;18.12;83.95
66053;HTU21D;52833;45.112;39.556;2022-07-23T00:02:46;18.14;83.87
66053;HTU21D;52833;45.112;39.556;2022-07-23T00:05:13;18.17;83.78
66053;HTU21D;52833;45.112;39.556;2022-07-23T00:07:40;18.19;83.74
66053;HTU21D;52833;45.112;39.556;2022-07-23T00:10:07;18.19;83.67
66053;HTU21D;52833;45.112;39.556;2022-07-23T00:12:34;18.21;83.64
66053;HTU21D;52833;45.112;39.556;2022-07-23T00:15:02;18.22;83.61
66053;HTU21D;52833;45.112;39.556;2022-07-23T00:17:29;18.23;83.60
66053;HTU21D;52833;45.112;39.556;2022-07-23T00:19:56;18.23;83.58
66053;HTU21D;52833;45.112;39.556;2022-07-23T00:22:22;18.24;83.57
66053;HTU21D;52833;45.112;39.556;2022-07-23T00:24:49;18.25;83.56
66053;HTU21D;52833;45.112;39.556;2022-07-23T00:27:16;18.27;83.59
66053;HTU21D;52833;45.112;39.556;2022-07-23T00:29:42;18.27;83.57
66053;HTU21D;52833;45.112;39.556;2022-07-23T00:32:09;18.29;83.55
66053;HTU21D;52833;45.112;39.556;2022-07-23T00:34:36;18.29;83.53
66053;HTU21D;52833;45.112;39.556;2022-07-23T00:37:03;18.30;83.50
66053;HTU21D;52833;45.112;39.556;2022-07-23T00:39:30;18.32;83.49
66053;HTU21D;52833;45.112;39.556;2022-07-23T00:41:56;18.33;83.47
66053;HTU21D;52833;45.112;39.556;2022-07-23T00:44:26;18.34;83.49
66053;HTU21D;52833;45.112;39.556;2022-07-23T00:46:55;18.36;83.49
66053;HTU21D;52833;45.112;39.556;2022-07-23T00:49:24;18.36;83.49
66053;HTU21D;52833;45.112;39.556;2022-07-23T00:51:51;18.37;83.47
66053;HTU21D;52833;45.112;39.556;2022-07-23T00:54:19;18.39;83.45
66053;HTU21D;52833;45.112;39.556;2022-07-23T00:56:46;18.40;83.46
66053;HTU21D;52833;45.112;39.556;2022-07-23T00:59:13;18.41;83.45
66053;HTU21D;52833;45.112;39.556;2022-07-23T01:01:41;18.42;83.47
66053;HTU21D;52833;45.112;39.556;2022-07-23T01:04:10;18.42;83.51
66053;HTU21D;52833;45.112;39.556;2022-07-23T01:06:38;18.42;83.52
66053;HTU21D;52833;45.112;39.556;2022-07-23T01:09:06;18.41;83.49
66053;HTU21D;52833;45.112;39.556;2022-07-23T01:11:34;18.41;83.48
66053;HTU21D;52833;45.112;39.556;2022-07-23T01:14:11;18.39;83.49
66053;HTU21D;52833;45.112;39.556;2022-07-23T01:16:40;18.38;83.45
66053;HTU21D;52833;45.112;39.556;2022-07-23T01:19:07;18.37;83.46
66053;HTU21D;52833;45.112;39.556;2022-07-23T01:21:40;18.35;83.49
66053;HTU21D;52833;45.112;39.556;2022-07-23T01:24:08;18.36;83.49
66053;HTU21D;52833;45.112;39.556;2022-07-23T01:26:41;18.36;83.50
66053;HTU21D;52833;45.112;39.556;2022-07-23T01:29:09;18.34;83.56
66053;HTU21D;52833;45.112;39.556;2022-07-23T01:31:36;18.34;83.57
66053;HTU21D;52833;45.112;39.556;2022-07-23T01:34:03;18.34;83.57
66053;HTU21D;52833;45.112;39.556;2022-07-23T01:36:31;18.33;83.62
66053;HTU21D;52833;45.112;39.556;2022-07-23T01:38:58;18.33;83.65
66053;HTU21D;52833;45.112;39.556;2022-07-23T01:41:25;18.33;83.68
66053;HTU21D;52833;45.112;39.556;2022-07-23T01:43:52;18.32;83.69
66053;HTU21D;52833;45.112;39.556;2022-07-23T01:46:19;18.33;83.71
66053;HTU21D;52833;45.112;39.556;2022-07-23T01:48:48;18.33;83.71
66053;HTU21D;52833;45.112;39.556;2022-07-23T01:51:34;18.33;83.64
66053;HTU21D;52833;45.112;39.556;2022-07-23T01:54:10;18.32;83.61
66053;HTU21D;52833;45.112;39.556;2022-07-23T01:56:37;18.32;83.57
66053;HTU21D;52833;45.112;39.556;2022-07-23T01:59:04;18.30;83.57
66053;HTU21D;52833;45.112;39.556;2022-07-23T02:01:31;18.29;83.60
66053;HTU21D;52833;45.112;39.556;2022-07-23T02:03:58;18.29;83.58
66053;HTU21D;52833;45.112;39.556;2022-07-23T02:06:24;18.28;83.57
66053;HTU21D;52833;45.112;39.556;2022-07-23T02:08:51;18.28;83.56
66053;HTU21D;52833;45.112;39.556;2022-07-23T02:11:18;18.28;83.58
66053;HTU21D;52833;45.112;39.556;2022-07-23T02:13:44;18.27;83.62
66053;HTU21D;52833;45.112;39.556;2022-07-23T02:16:11;18.25;83.67
66053;HTU21D;52833;45.112;39.556;2022-07-23T02:18:38;18.26;83.66
66053;HTU21D;52833;45.112;39.556;2022-07-23T02:21:04;18.26;83.67
66053;HTU21D;52833;45.112;39.556;2022-07-23T02:23:31;18.27;83.66
66053;HTU21D;52833;45.112;39.556;2022-07-23T02:25:58;18.26;83.66
66053;HTU21D;52833;45.112;39.556;2022-07-23T02:28:25;18.26;83.63
66053;HTU21D;52833;45.112;39.556;2022-07-23T02:30:51;18.25;83.63
66053;HTU21D;52833;45.112;39.556;2022-07-23T02:33:18;18.25;83.59
66053;HTU21D;52833;45.112;39.556;2022-07-23T02:35:46;18.25;83.57
66053;HTU21D;52833;45.112;39.556;2022-07-23T02:38:13;18.22;83.55
66053;HTU21D;52833;45.112;39.556;2022-07-23T02:40:40;18.21;83.49
66053;HTU21D;52833;45.112;39.556;2022-07-23T02:43:07;18.20;83.47
66053;HTU21D;52833;45.112;39.556;2022-07-23T02:45:34;18.19;83.46
66053;HTU21D;52833;45.112;39.556;2022-07-23T02:48:00;18.17;83.52
66053;HTU21D;52833;45.112;39.556;2022-07-23T02:50:27;18.17;83.61
66053;HTU21D;52833;45.112;39.556;2022-07-23T02:52:57;18.20;83.71
66053;HTU21D;52833;45.112;39.556;2022-07-23T02:55:25;18.25;83.80
66053;HTU21D;52833;45.112;39.556;2022-07-23T02:57:52;18.32;83.84
66053;HTU21D;52833;45.112;39.556;2022-07-23T03:00:18;18.40;83.78
66053;HTU21D;52833;45.112;39.556;2022-07-23T03:02:45;18.50;83.85
66053;HTU21D;52833;45.112;39.556;2022-07-23T03:05:11;18.84;84.16
66053;HTU21D;52833;45.112;39.556;2022-07-23T03:07:39;19.11;83.29
66053;HTU21D;52833;45.112;39.556;2022-07-23T03:10:05;19.21;82.85
66053;HTU21D;52833;45.112;39.556;2022-07-23T03:12:32;19.24;82.67
66053;HTU21D;52833;45.112;39.556;2022-07-23T03:14:58;19.24;82.58
66053;HTU21D;52833;45.112;39.556;2022-07-23T03:17:27;19.20;82.53
66053;HTU21D;52833;45.112;39.556;2022-07-23T03:19:53;19.18;82.48
66053;HTU21D;52833;45.112;39.556;2022-07-23T03:22:19;19.21;82.51
66053;HTU21D;52833;45.112;39.556;2022-07-23T03:24:47;19.55;83.05
66053;HTU21D;52833;45.112;39.556;2022-07-23T03:27:23;20.33;82.04
66053;HTU21D;52833;45.112;39.556;2022-07-23T03:29:51;21.24;80.37
66053;HTU21D;52833;45.112;39.556;2022-07-23T03:32:19;22.11;78.53
66053;HTU21D;52833;45.112;39.556;2022-07-23T03:34:46;22.85;76.89
66053;HTU21D;52833;45.112;39.556;2022-07-23T03:37:13;23.45;75.68
66053;HTU21D;52833;45.112;39.556;2022-07-23T03:39:40;23.97;74.77
66053;HTU21D;52833;45.112;39.556;2022-07-23T03:42:07;24.35;74.20
66053;HTU21D;52833;45.112;39.556;2022-07-23T03:44:34;24.60;73.70
66053;HTU21D;52833;45.112;39.556;2022-07-23T03:47:03;24.74;73.71
66053;HTU21D;52833;45.112;39.556;2022-07-23T03:49:30;24.83;73.77
66053;HTU21D;52833;45.112;39.556;2022-07-23T03:52:00;24.89;73.99
66053;HTU21D;52833;45.112;39.556;2022-07-23T03:54:27;24.98;74.25
66053;HTU21D;52833;45.112;39.556;2022-07-23T03:56:53;25.04;74.12
66053;HTU21D;52833;45.112;39.556;2022-07-23T03:59:20;25.08;74.11
66053;HTU21D;52833;45.112;39.556;2022-07-23T04:01:47;25.15;74.28
66053;HTU21D;52833;45.112;39.556;2022-07-23T04:04:13;25.20;74.13
66053;HTU21D;52833;45.112;39.556;2022-07-23T04:06:41;25.23;74.02
66053;HTU21D;52833;45.112;39.556;2022-07-23T04:09:07;25.25;73.81
66053;HTU21D;52833;45.112;39.556;2022-07-23T04:11:34;25.23;73.68
66053;HTU21D;52833;45.112;39.556;2022-07-23T04:14:01;25.22;73.54
66053;HTU21D;52833;45.112;39.556;2022-07-23T04:16:27;25.20;73.40
66053;HTU21D;52833;45.112;39.556;2022-07-23T04:18:54;25.16;73.16
66053;HTU21D;52833;45.112;39.556;2022-07-23T04:21:22;25.13;72.98
66053;HTU21D;52833;45.112;39.556;2022-07-23T04:23:49;25.06;72.81
66053;HTU21D;52833;45.112;39.556;2022-07-23T04:26:15;25.04;72.89
66053;HTU21D;52833;45.112;39.556;2022-07-23T04:28:42;25.09;72.74
66053;HTU21D;52833;45.112;39.556;2022-07-23T04:31:09;25.14;72.25
66053;HTU21D;52833;45.112;39.556;2022-07-23T04:33:37;25.16;71.87
66053;HTU21D;52833;45.112;39.556;2022-07-23T04:36:06;25.20;71.57
66053;HTU21D;52833;45.112;39.556;2022-07-23T04:38:32;25.25;71.20
66053;HTU21D;52833;45.112;39.556;2022-07-23T04:41:02;25.32;70.88
66053;HTU21D;52833;45.112;39.556;2022-07-23T04:43:28;25.42;70.73
66053;HTU21D;52833;45.112;39.556;2022-07-23T04:45:55;25.52;70.19
66053;HTU21D;52833;45.112;39.556;2022-07-23T04:48:22;25.57;69.77
66053;HTU21D;52833;45.112;39.556;2022-07-23T04:50:55;25.60;69.47
66053;HTU21D;52833;45.112;39.556;2022-07-23T04:53:27;25.62;69.27
66053;HTU21D;52833;45.112;39.556;2022-07-23T04:55:58;25.63;68.93
66053;HTU21D;52833;45.112;39.556;2022-07-23T04:58:25;25.64;68.81
66053;HTU21D;52833;45.112;39.556;2022-07-23T05:00:51;25.69;68.66
66053;HTU21D;52833;45.112;39.556;2022-07-23T05:03:18;25.75;68.49
66053;HTU21D;52833;45.112;39.556;2022-07-23T05:05:47;25.82;68.34
66053;HTU21D;52833;45.112;39.556;2022-07-23T05:08:17;25.92;68.28
66053;HTU21D;52833;45.112;39.556;2022-07-23T05:10:49;26.02;67.84
66053;HTU21D;52833;45.112;39.556;2022-07-23T05:13:15;26.07;67.67
66053;HTU21D;52833;45.112;39.556;2022-07-23T05:15:43;26.13;67.48
66053;HTU21D;52833;45.112;39.556;2022-07-23T05:18:10;26.21;67.39
66053;HTU21D;52833;45.112;39.556;2022-07-23T05:20:37;26.26;67.00
66053;HTU21D;52833;45.112;39.556;2022-07-23T05:23:03;26.27;66.65
66053;HTU21D;52833;45.112;39.556;2022-07-23T05:25:30;26.25;66.24
66053;HTU21D;52833;45.112;39.556;2022-07-23T05:27:57;26.20;66.17
66053;HTU21D;52833;45.112;39.556;2022-07-23T05:30:24;26.18;66.33
66053;HTU21D;52833;45.112;39.556;2022-07-23T05:32:56;26.22;66.38
66053;HTU21D;52833;45.112;39.556;2022-07-23T05:35:24;26.31;66.43
66053;HTU21D;52833;45.112;39.556;2022-07-23T05:38:11;26.41;66.27
66053;HTU21D;52833;45.112;39.556;2022-07-23T05:40:38;26.50;66.17
66053;HTU21D;52833;45.112;39.556;2022-07-23T05:43:05;26.61;66.11
66053;HTU21D;52833;45.112;39.556;2022-07-23T05:45:32;26.70;65.91
66053;HTU21D;52833;45.112;39.556;2022-07-23T05:47:59;26.79;65.53
66053;HTU21D;52833;45.112;39.556;2022-07-23T05:50:32;26.84;65.33
66053;HTU21D;52833;45.112;39.556;2022-07-23T05:53:27;26.92;65.27
66053;HTU21D;52833;45.112;39.556;2022-07-23T05:56:09;26.95;64.98
66053;HTU21D;52833;45.112;39.556;2022-07-23T05:58:36;26.90;64.66
66053;HTU21D;52833;45.112;39.556;2022-07-23T06:01:03;26.84;64.60
66053;HTU21D;52833;45.112;39.556;2022-07-23T06:03:37;26.81;64.73
66053;HTU21D;52833;45.112;39.556;2022-07-23T06:06:05;26.83;64.88
66053;HTU21D;52833;45.112;39.556;2022-07-23T06:08:32;26.90;64.91
66053;HTU21D;52833;45.112;39.556;2022-07-23T06:10:59;26.98;64.79
66053;HTU21D;52833;45.112;39.556;2022-07-23T06:13:26;27.06;64.59
66053;HTU21D;52833;45.112;39.556;2022-07-23T06:15:53;27.12;64.63
66053;HTU21D;52833;45.112;39.556;2022-07-23T06:18:19;27.16;64.01
66053;HTU21D;52833;45.112;39.556;2022-07-23T06:20:47;27.13;63.47
66053;HTU21D;52833;45.112;39.556;2022-07-23T06:23:13;27.16;63.55
66053;HTU21D;52833;45.112;39.556;2022-07-23T06:25:40;27.24;63.27
66053;HTU21D;52833;45.112;39.556;2022-07-23T06:28:07;27.35;63.06
66053;HTU21D;52833;45.112;39.556;2022-07-23T06:30:33;27.40;62.68
66053;HTU21D;52833;45.112;39.556;2022-07-23T06:33:00;27.37;62.23
66053;HTU21D;52833;45.112;39.556;2022-07-23T06:35:26;27.23;61.96
66053;HTU21D;52833;45.112;39.556;2022-07-23T06:37:53;26.91;61.98
66053;HTU21D;52833;45.112;39.556;2022-07-23T06:40:19;26.57;62.37
66053;HTU21D;52833;45.112;39.556;2022-07-23T06:42:46;26.31;62.93
66053;HTU21D;52833;45.112;39.556;2022-07-23T06:45:17;26.06;63.27
66053;HTU21D;52833;45.112;39.556;2022-07-23T06:47:44;25.86;63.63
66053;HTU21D;52833;45.112;39.556;2022-07-23T06:50:10;25.60;63.92
66053;HTU21D;52833;45.112;39.556;2022-07-23T06:52:37;25.31;64.38
66053;HTU21D;52833;45.112;39.556;2022-07-23T06:55:05;25.05;64.69
66053;HTU21D;52833;45.112;39.556;2022-07-23T06:57:35;24.84;65.62
66053;HTU21D;52833;45.112;39.556;2022-07-23T07:00:01;24.69;66.45
66053;HTU21D;52833;45.112;39.556;2022-07-23T07:02:28;24.61;66.80
66053;HTU21D;52833;45.112;39.556;2022-07-23T07:04:58;24.55;67.24
66053;HTU21D;52833;45.112;39.556;2022-07-23T07:07:24;24.60;67.71
66053;HTU21D;52833;45.112;39.556;2022-07-23T07:09:51;24.71;67.75
66053;HTU21D;52833;45.112;39.556;2022-07-23T07:12:17;24.85;67.54
66053;HTU21D;52833;45.112;39.556;2022-07-23T07:14:43;24.95;67.35
66053;HTU21D;52833;45.112;39.556;2022-07-23T07:17:10;25.06;67.01
66053;HTU21D;52833;45.112;39.556;2022-07-23T07:19:39;25.09;66.60
66053;HTU21D;52833;45.112;39.556;2022-07-23T07:22:06;25.12;66.43
66053;HTU21D;52833;45.112;39.556;2022-07-23T07:24:32;25.18;66.12
66053;HTU21D;52833;45.112;39.556;2022-07-23T07:26:59;25.29;66.14
66053;HTU21D;52833;45.112;39.556;2022-07-23T07:29:25;25.42;65.83
66053;HTU21D;52833;45.112;39.556;2022-07-23T07:31:51;25.60;65.55
66053;HTU21D;52833;45.112;39.556;2022-07-23T07:34:18;25.83;65.41
66053;HTU21D;52833;45.112;39.556;2022-07-23T07:36:45;26.13;64.83
66053;HTU21D;52833;45.112;39.556;2022-07-23T07:39:11;26.35;63.95
66053;HTU21D;52833;45.112;39.556;2022-07-23T07:41:38;26.43;63.02
66053;HTU21D;52833;45.112;39.556;2022-07-23T07:44:04;26.41;62.52
66053;HTU21D;52833;45.112;39.556;2022-07-23T07:46:30;26.33;62.24
66053;HTU21D;52833;45.112;39.556;2022-07-23T07:48:57;26.22;62.14
66053;HTU21D;52833;45.112;39.556;2022-07-23T07:51:23;26.11;62.23
66053;HTU21D;52833;45.112;39.556;2022-07-23T07:53:50;25.98;62.02
66053;HTU21D;52833;45.112;39.556;2022-07-23T07:56:16;25.83;62.14
66053;HTU21D;52833;45.112;39.556;2022-07-23T07:58:43;25.64;62.49
66053;HTU21D;52833;45.112;39.556;2022-07-23T08:01:09;25.50;63.16
66053;HTU21D;52833;45.112;39.556;2022-07-23T08:03:36;25.45;63.82
66053;HTU21D;52833;45.112;39.556;2022-07-23T08:06:02;25.49;64.24
66053;HTU21D;52833;45.112;39.556;2022-07-23T08:08:28;25.61;64.56
66053;HTU21D;52833;45.112;39.556;2022-07-23T08:10:55;25.78;64.64
66053;HTU21D;52833;45.112;39.556;2022-07-23T08:13:22;25.99;64.56
66053;HTU21D;52833;45.112;39.556;2022-07-23T08:15:48;26.24;64.37
66053;HTU21D;52833;45.112;39.556;2022-07-23T08:18:15;26.51;64.23
66053;HTU21D;52833;45.112;39.556;2022-07-23T08:20:41;26.79;63.92
66053;HTU21D;52833;45.112;39.556;2022-07-23T08:23:08;27.04;63.60
66053;HTU21D;52833;45.112;39.556;2022-07-23T08:25:41;27.31;63.22
66053;HTU21D;52833;45.112;39.556;2022-07-23T08:28:10;27.55;62.63
66053;HTU21D;52833;45.112;39.556;2022-07-23T08:30:38;27.74;62.08
66053;HTU21D;52833;45.112;39.556;2022-07-23T08:33:08;27.88;61.58
66053;HTU21D;52833;45.112;39.556;2022-07-23T08:35:44;28.04;60.96
66053;HTU21D;52833;45.112;39.556;2022-07-23T08:38:15;28.23;60.68
66053;HTU21D;52833;45.112;39.556;2022-07-23T08:40:44;28.34;59.98
66053;HTU21D;52833;45.112;39.556;2022-07-23T08:43:20;28.44;59.35
66053;HTU21D;52833;45.112;39.556;2022-07-23T08:45:49;28.52;58.99
66053;HTU21D;52833;45.112;39.556;2022-07-23T08:48:27;28.56;58.19
66053;HTU21D;52833;45.112;39.556;2022-07-23T08:50:56;28.60;57.21
66053;HTU21D;52833;45.112;39.556;2022-07-23T08:53:24;28.60;56.64
66053;HTU21D;52833;45.112;39.556;2022-07-23T08:55:53;28.64;56.58
66053;HTU21D;52833;45.112;39.556;2022-07-23T08:58:21;28.76;56.42
66053;HTU21D;52833;45.112;39.556;2022-07-23T09:00:48;28.86;56.07
66053;HTU21D;52833;45.112;39.556;2022-07-23T09:03:21;28.95;55.85
66053;HTU21D;52833;45.112;39.556;2022-07-23T09:05:50;29.11;55.78
66053;HTU21D;52833;45.112;39.556;2022-07-23T09:08:22;29.20;55.49
66053;HTU21D;52833;45.112;39.556;2022-07-23T09:10:50;29.29;55.58
66053;HTU21D;52833;45.112;39.556;2022-07-23T09:16:19;29.29;54.88
66053;HTU21D;52833;45.112;39.556;2022-07-23T09:18:48;29.12;54.76
66053;HTU21D;52833;45.112;39.556;2022-07-23T09:21:16;28.88;54.59
66053;HTU21D;52833;45.112;39.556;2022-07-23T09:24:10;28.63;54.47
66053;HTU21D;52833;45.112;39.556;2022-07-23T09:26:43;28.46;54.81
66053;HTU21D;52833;45.112;39.556;2022-07-23T09:29:24;28.41;54.96
66053;HTU21D;52833;45.112;39.556;2022-07-23T09:31:58;28.34;54.64
66053;HTU21D;52833;45.112;39.556;2022-07-23T09:34:30;28.19;54.76
66053;HTU21D;52833;45.112;39.556;2022-07-23T09:37:19;28.03;55.11
66053;HTU21D;52833;45.112;39.556;2022-07-23T09:39:48;28.00;55.31
66053;HTU21D;52833;45.112;39.556;2022-07-23T09:42:25;28.01;55.36
66053;HTU21D;52833;45.112;39.556;2022-07-23T09:44:55;28.08;55.12
66053;HTU21D;52833;45.112;39.556;2022-07-23T09:47:23;28.10;54.66
66053;HTU21D;52833;45.112;39.556;2022-07-23T09:50:10;28.15;54.58
66053;HTU21D;52833;45.112;39.556;2022-07-23T09:52:46;28.24;54.32
66053;HTU21D;52833;45.112;39.556;2022-07-23T09:55:19;28.30;54.24
66053;HTU21D;52833;45.112;39.556;2022-07-23T09:57:46;28.35;54.20
66053;HTU21D;52833;45.112;39.556;2022-07-23T10:00:16;28.44;53.74
66053;HTU21D;52833;45.112;39.556;2022-07-23T10:02:45;28.45;53.23
66053;HTU21D;52833;45.112;39.556;2022-07-23T10:05:28;28.44;52.91
66053;HTU21D;52833;45.112;39.556;2022-07-23T10:08:27;28.38;52.36
66053;HTU21D;52833;45.112;39.556;2022-07-23T10:11:09;28.31;52.80
66053;HTU21D;52833;45.112;39.556;2022-07-23T10:13:48;28.34;53.16
66053;HTU21D;52833;45.112;39.556;2022-07-23T10:16:27;28.38;53.33
66053;HTU21D;52833;45.112;39.556;2022-07-23T10:18:54;28.50;53.64
66053;HTU21D;52833;45.112;39.556;2022-07-23T10:21:36;28.69;53.10
66053;HTU21D;52833;45.112;39.556;2022-07-23T10:24:41;28.80;52.65
66053;HTU21D;52833;45.112;39.556;2022-07-23T10:27:30;28.74;52.07
66053;HTU21D;52833;45.112;39.556;2022-07-23T10:30:06;28.63;51.82
66053;HTU21D;52833;45.112;39.556;2022-07-23T10:35:48;28.31;51.56
66053;HTU21D;52833;45.112;39.556;2022-07-23T10:38:20;28.17;51.50
66053;HTU21D;52833;45.112;39.556;2022-07-23T10:41:04;28.14;51.77
66053;HTU21D;52833;45.112;39.556;2022-07-23T10:43:31;28.19;51.57
66053;HTU21D;52833;45.112;39.556;2022-07-23T10:46:25;28.26;51.62
66053;HTU21D;52833;45.112;39.556;2022-07-23T10:49:25;28.42;51.86
66053;HTU21D;52833;45.112;39.556;2022-07-23T10:54:45;28.55;51.39
66053;HTU21D;52833;45.112;39.556;2022-07-23T10:57:13;28.54;51.46
66053;HTU21D;52833;45.112;39.556;2022-07-23T11:02:33;28.54;51.31
66053;HTU21D;52833;45.112;39.556;2022-07-23T11:05:04;28.52;50.96
66053;HTU21D;52833;45.112;39.556;2022-07-23T11:07:34;28.42;50.59
66053;HTU21D;52833;45.112;39.556;2022-07-23T11:10:01;28.32;50.68
66053;HTU21D;52833;45.112;39.556;2022-07-23T11:15:01;28.24;50.55
66053;HTU21D;52833;45.112;39.556;2022-07-23T11:17:30;28.26;51.17
66053;HTU21D;52833;45.112;39.556;2022-07-23T11:22:36;28.38;51.11
66053;HTU21D;52833;45.112;39.556;2022-07-23T11:25:03;28.42;50.79
66053;HTU21D;52833;45.112;39.556;2022-07-23T11:27:44;28.39;50.93
66053;HTU21D;52833;45.112;39.556;2022-07-23T11:30:36;28.32;51.10
66053;HTU21D;52833;45.112;39.556;2022-07-23T11:35:39;28.21;51.07
66053;HTU21D;52833;45.112;39.556;2022-07-23T11:38:07;28.15;50.82
66053;HTU21D;52833;45.112;39.556;2022-07-23T11:40:35;28.04;50.77
66053;HTU21D;52833;45.112;39.556;2022-07-23T11:43:12;28.02;51.25
66053;HTU21D;52833;45.112;39.556;2022-07-23T11:45:42;28.05;51.30
66053;HTU21D;52833;45.112;39.556;2022-07-23T11:50:45;28.27;51.83
66053;HTU21D;52833;45.112;39.556;2022-07-23T11:53:12;28.41;51.54
66053;HTU21D;52833;45.112;39.556;2022-07-23T11:55:39;28.49;51.40
66053;HTU21D;52833;45.112;39.556;2022-07-23T11:58:05;28.57;51.26
66053;HTU21D;52833;45.112;39.556;2022-07-23T12:00:32;28.67;51.02
66053;HTU21D;52833;45.112;39.556;2022-07-23T12:03:01;28.74;50.75
66053;HTU21D;52833;45.112;39.556;2022-07-23T12:05:34;28.83;50.25
66053;HTU21D;52833;45.112;39.556;2022-07-23T12:08:04;28.89;49.64
66053;HTU21D;52833;45.112;39.556;2022-07-23T12:10:37;28.88;49.38
66053;HTU21D;52833;45.112;39.556;2022-07-23T12:13:06;28.83;49.41
66053;HTU21D;52833;45.112;39.556;2022-07-23T12:15:39;28.78;49.48
66053;HTU21D;52833;45.112;39.556;2022-07-23T12:18:08;28.71;49.59
66053;HTU21D;52833;45.112;39.556;2022-07-23T12:20:43;28.64;49.66
66053;HTU21D;52833;45.112;39.556;2022-07-23T12:23:13;28.59;49.71
66053;HTU21D;52833;45.112;39.556;2022-07-23T12:25:44;28.56;49.98
66053;HTU21D;52833;45.112;39.556;2022-07-23T12:28:14;28.55;49.89
66053;HTU21D;52833;45.112;39.556;2022-07-23T12:30:49;28.44;49.80
66053;HTU21D;52833;45.112;39.556;2022-07-23T12:33:31;28.29;49.49
66053;HTU21D;52833;45.112;39.556;2022-07-23T12:36:03;28.06;49.96
66053;HTU21D;52833;45.112;39.556;2022-07-23T12:41:05;27.79;50.72
66053;HTU21D;52833;45.112;39.556;2022-07-23T12:43:37;27.74;51.14
66053;HTU21D;52833;45.112;39.556;2022-07-23T12:48:32;27.64;51.22
66053;HTU21D;52833;45.112;39.556;2022-07-23T12:51:05;27.61;51.35
66053;HTU21D;52833;45.112;39.556;2022-07-23T12:53:46;27.60;51.24
66053;HTU21D;52833;45.112;39.556;2022-07-23T12:56:21;27.53;50.85
66053;HTU21D;52833;45.112;39.556;2022-07-23T12:58:53;27.46;51.38
66053;HTU21D;52833;45.112;39.556;2022-07-23T13:01:25;27.46;51.75
66053;HTU21D;52833;45.112;39.556;2022-07-23T13:04:18;27.44;51.53
66053;HTU21D;52833;45.112;39.556;2022-07-23T13:06:50;27.41;51.82
66053;HTU21D;52833;45.112;39.556;2022-07-23T13:09:23;27.39;51.87
66053;HTU21D;52833;45.112;39.556;2022-07-23T13:11:52;27.38;51.75
66053;HTU21D;52833;45.112;39.556;2022-07-23T13:14:19;27.40;51.93
66053;HTU21D;52833;45.112;39.556;2022-07-23T13:16:49;27.46;52.01
66053;HTU21D;52833;45.112;39.556;2022-07-23T13:19:16;27.51;51.52
66053;HTU21D;52833;45.112;39.556;2022-07-23T13:21:43;27.50;51.54
66053;HTU21D;52833;45.112;39.556;2022-07-23T13:24:11;27.45;51.43
66053;HTU21D;52833;45.112;39.556;2022-07-23T13:26:39;27.39;51.46
66053;HTU21D;52833;45.112;39.556;2022-07-23T13:29:06;27.34;51.61
66053;HTU21D;52833;45.112;39.556;2022-07-23T13:31:33;27.28;51.73
66053;HTU21D;52833;45.112;39.556;2022-07-23T13:33:59;27.21;51.88
66053;HTU21D;52833;45.112;39.556;2022-07-23T13:36:28;27.14;52.09
66053;HTU21D;52833;45.112;39.556;2022-07-23T13:38:54;27.07;52.14
66053;HTU21D;52833;45.112;39.556;2022-07-23T13:41:21;26.98;52.29
66053;HTU21D;52833;45.112;39.556;2022-07-23T13:43:47;26.94;52.67
66053;HTU21D;52833;45.112;39.556;2022-07-23T13:46:15;26.90;52.82
66053;HTU21D;52833;45.112;39.556;2022-07-23T13:48:42;26.89;52.94
66053;HTU21D;52833;45.112;39.556;2022-07-23T13:51:09;26.90;52.98
66053;HTU21D;52833;45.112;39.556;2022-07-23T13:53:35;26.87;53.13
66053;HTU21D;52833;45.112;39.556;2022-07-23T13:56:01;26.85;53.18
66053;HTU21D;52833;45.112;39.556;2022-07-23T13:58:28;26.83;53.00
66053;HTU21D;52833;45.112;39.556;2022-07-23T14:00:54;26.77;53.03
66053;HTU21D;52833;45.112;39.556;2022-07-23T14:03:22;26.73;53.07
66053;HTU21D;52833;45.112;39.556;2022-07-23T14:05:50;26.69;53.13
66053;HTU21D;52833;45.112;39.556;2022-07-23T14:08:20;26.65;53.16
66053;HTU21D;52833;45.112;39.556;2022-07-23T14:10:47;26.62;53.14
66053;HTU21D;52833;45.112;39.556;2022-07-23T14:13:13;26.60;53.23
66053;HTU21D;52833;45.112;39.556;2022-07-23T14:15:40;26.56;53.46
66053;HTU21D;52833;45.112;39.556;2022-07-23T14:18:07;26.53;53.27
66053;HTU21D;52833;45.112;39.556;2022-07-23T14:20:34;26.51;53.32
66053;HTU21D;52833;45.112;39.556;2022-07-23T14:23:01;26.49;53.49
66053;HTU21D;52833;45.112;39.556;2022-07-23T14:25:27;26.48;53.43
66053;HTU21D;52833;45.112;39.556;2022-07-23T14:27:54;26.46;53.34
66053;HTU21D;52833;45.112;39.556;2022-07-23T14:30:21;26.41;53.33
66053;HTU21D;52833;45.112;39.556;2022-07-23T14:32:50;26.37;53.38
66053;HTU21D;52833;45.112;39.556;2022-07-23T14:35:17;26.34;53.50
66053;HTU21D;52833;45.112;39.556;2022-07-23T14:37:45;26.28;53.75
66053;HTU21D;52833;45.112;39.556;2022-07-23T14:40:11;26.23;54.06
66053;HTU21D;52833;45.112;39.556;2022-07-23T14:42:37;26.20;54.11
66053;HTU21D;52833;45.112;39.556;2022-07-23T14:45:04;26.16;53.97
66053;HTU21D;52833;45.112;39.556;2022-07-23T14:47:32;26.10;53.92
66053;HTU21D;52833;45.112;39.556;2022-07-23T14:49:59;26.05;54.01
66053;HTU21D;52833;45.112;39.556;2022-07-23T14:52:25;26.02;54.10
66053;HTU21D;52833;45.112;39.556;2022-07-23T14:54:52;25.97;54.33
66053;HTU21D;52833;45.112;39.556;2022-07-23T14:57:18;25.93;54.36
66053;HTU21D;52833;45.112;39.556;2022-07-23T14:59:45;25.87;54.26
66053;HTU21D;52833;45.112;39.556;2022-07-23T15:02:11;25.79;54.35
66053;HTU21D;52833;45.112;39.556;2022-07-23T15:04:38;25.73;54.38
66053;HTU21D;52833;45.112;39.556;2022-07-23T15:07:05;25.65;54.30
66053;HTU21D;52833;45.112;39.556;2022-07-23T15:09:32;25.54;54.36
66053;HTU21D;52833;45.112;39.556;2022-07-23T15:11:59;25.47;54.68
66053;HTU21D;52833;45.112;39.556;2022-07-23T15:14:25;25.40;54.93
66053;HTU21D;52833;45.112;39.556;2022-07-23T15:16:52;25.34;55.14
66053;HTU21D;52833;45.112;39.556;2022-07-23T15:19:19;25.27;55.12
66053;HTU21D;52833;45.112;39.556;2022-07-23T15:21:46;25.17;55.26
66053;HTU21D;52833;45.112;39.556;2022-07-23T15:24:12;25.06;55.43
66053;HTU21D;52833;45.112;39.556;2022-07-23T15:26:39;25.01;55.71
66053;HTU21D;52833;45.112;39.556;2022-07-23T15:29:06;24.95;56.05
66053;HTU21D;52833;45.112;39.556;2022-07-23T15:31:32;24.92;56.31
66053;HTU21D;52833;45.112;39.556;2022-07-23T15:33:59;24.88;56.42
66053;HTU21D;52833;45.112;39.556;2022-07-23T15:36:28;24.85;56.50
66053;HTU21D;52833;45.112;39.556;2022-07-23T15:38:55;24.82;56.48
66053;HTU21D;52833;45.112;39.556;2022-07-23T15:41:21;24.76;56.40